Time;durP1;ratioP1;P1;durP2;ratioP2;P2;SDS_P1;SDS_P2;PMS_P1;PMS_P2;Temp;Humidity;BMP_temperature;BMP_pressure;BME280_temperature;BME280_humidity;BME280_pressure;Samples;Min_cycle;Max_cycle;Signal;HPM_P1;HPM_P2
2020/12/12 00:00:48;;;;;;;73.07;14.05;;;3.70;4.80;;;;;;5071739;28;20311;-72
2020/12/12 00:03:14;;;;;;;67.35;11.70;;;3.70;5.40;;;;;;5071481;28;20224;-72
2020/12/12 00:05:41;;;;;;;69.47;13.00;;;3.70;5.80;;;;;;5071453;28;20637;-72
2020/12/12 00:08:07;;;;;;;68.30;11.82;;;3.70;7.40;;;;;;5071633;28;20205;-72
2020/12/12 00:10:35;;;;;;;70.00;13.68;;;3.70;7.50;;;;;;5071500;28;20205;-72
2020/12/12 00:13:01;;;;;;;71.95;14.15;;;3.70;8.30;;;;;;5070922;28;20292;-72
2020/12/12 00:15:27;;;;;;;71.22;14.73;;;3.70;9.50;;;;;;5071280;28;20232;-72
2020/12/12 00:17:54;;;;;;;72.30;14.15;;;3.70;8.90;;;;;;5071392;28;20304;-72
2020/12/12 00:20:20;;;;;;;73.78;14.85;;;3.70;9.60;;;;;;5070805;28;20209;-72
2020/12/12 00:22:46;;;;;;;70.03;13.15;;;3.70;10.40;;;;;;5071261;28;20221;-72
2020/12/12 00:25:12;;;;;;;70.82;13.05;;;3.70;10.20;;;;;;5071137;28;20251;-72
2020/12/12 00:27:40;;;;;;;70.28;13.35;;;3.70;10.30;;;;;;5071553;28;20231;-72
2020/12/12 00:30:06;;;;;;;74.05;15.55;;;3.70;11.10;;;;;;5071006;28;20748;-72
2020/12/12 00:32:33;;;;;;;73.18;14.15;;;3.60;11.40;;;;;;5071149;28;20672;-72
2020/12/12 00:34:59;;;;;;;71.15;13.63;;;3.60;13.10;;;;;;5070900;28;20578;-72
2020/12/12 00:37:25;;;;;;;73.10;13.77;;;3.60;13.50;;;;;;5071268;28;20205;-72
2020/12/12 00:39:52;;;;;;;74.68;15.60;;;3.70;14.60;;;;;;5070998;28;20207;-72
2020/12/12 00:42:18;;;;;;;72.20;12.45;;;3.70;16.10;;;;;;5071194;28;20264;-72
2020/12/12 00:44:47;;;;;;;73.68;13.23;;;3.70;16.00;;;;;;5070964;28;20209;-72
2020/12/12 00:47:13;;;;;;;73.85;12.98;;;3.70;17.50;;;;;;5071552;28;20209;-72
2020/12/12 00:49:40;;;;;;;71.85;13.77;;;3.70;17.10;;;;;;5072626;28;20258;-72
2020/12/12 00:52:06;;;;;;;70.20;13.43;;;3.70;17.30;;;;;;5071057;28;20216;-72
2020/12/12 00:54:32;;;;;;;72.28;14.13;;;3.70;17.00;;;;;;5070887;28;20205;-72
2020/12/12 00:56:59;;;;;;;71.88;13.95;;;3.70;17.40;;;;;;5070782;28;20224;-72
2020/12/12 00:59:25;;;;;;;71.32;12.90;;;3.70;18.10;;;;;;5071235;28;20201;-72
2020/12/12 01:01:52;;;;;;;71.00;13.05;;;3.70;17.70;;;;;;5071091;28;20208;-72
2020/12/12 01:04:19;;;;;;;74.38;13.95;;;3.70;18.20;;;;;;5070785;28;20229;-72
2020/12/12 01:06:47;;;;;;;74.22;13.98;;;3.70;18.20;;;;;;5070461;28;20229;-72
2020/12/12 01:09:13;;;;;;;74.13;13.63;;;3.70;19.00;;;;;;5070774;28;20292;-72
2020/12/12 01:11:39;;;;;;;71.93;13.63;;;3.70;19.30;;;;;;5071109;28;20213;-72
2020/12/12 01:14:06;;;;;;;75.63;14.90;;;3.70;19.00;;;;;;5070690;28;20672;-72
2020/12/12 01:16:32;;;;;;;73.25;13.57;;;3.70;18.80;;;;;;5070684;28;20599;-72
2020/12/12 01:18:59;;;;;;;74.20;13.23;;;3.70;18.70;;;;;;5070646;28;20209;-72
2020/12/12 01:21:26;;;;;;;72.20;13.00;;;3.70;18.40;;;;;;5071315;28;20209;-72
2020/12/12 01:23:52;;;;;;;74.53;13.52;;;3.70;18.50;;;;;;5070449;28;20225;-72
2020/12/12 01:26:18;;;;;;;74.25;12.90;;;3.70;18.80;;;;;;5070748;28;20224;-72
2020/12/12 01:28:45;;;;;;;73.25;14.25;;;3.70;18.00;;;;;;5070501;28;20207;-72
2020/12/12 01:31:12;;;;;;;72.80;13.80;;;3.70;18.00;;;;;;5070610;28;20212;-72
2020/12/12 01:33:39;;;;;;;74.50;13.85;;;3.70;17.60;;;;;;5074089;28;20292;-72
2020/12/12 01:36:07;;;;;;;73.40;13.95;;;3.70;17.70;;;;;;5073581;28;20243;-72
2020/12/12 01:38:34;;;;;;;73.95;14.18;;;3.70;17.70;;;;;;5073993;28;20266;-72
2020/12/12 01:41:00;;;;;;;76.85;14.93;;;3.70;17.20;;;;;;5074115;28;20208;-72
2020/12/12 01:43:26;;;;;;;71.55;14.38;;;3.70;16.90;;;;;;5074066;28;20234;-72
2020/12/12 01:45:53;;;;;;;74.18;13.20;;;3.80;16.40;;;;;;5073735;28;20601;-72
2020/12/12 01:48:19;;;;;;;72.68;13.90;;;3.80;16.80;;;;;;5073963;28;20208;-72
2020/12/12 01:50:45;;;;;;;73.53;14.52;;;3.80;16.90;;;;;;5073706;28;20296;-72
2020/12/12 01:53:14;;;;;;;77.22;15.23;;;3.80;16.30;;;;;;5073794;28;20216;-72
2020/12/12 01:55:46;;;;;;;73.05;13.95;;;3.80;15.60;;;;;;5073759;28;20224;-72
2020/12/12 01:58:13;;;;;;;73.90;14.07;;;3.80;15.60;;;;;;5073812;28;20267;-72
2020/12/12 02:00:39;;;;;;;74.70;14.98;;;3.80;14.40;;;;;;5073741;28;20219;-72
2020/12/12 02:03:08;;;;;;;71.05;12.95;;;3.80;13.80;;;;;;5073419;28;20225;-72
2020/12/12 02:05:42;;;;;;;74.10;13.48;;;3.80;13.80;;;;;;5073362;28;20728;-72
2020/12/12 02:08:11;;;;;;;73.40;14.75;;;3.80;11.60;;;;;;5073583;28;20227;-72
2020/12/12 02:10:39;;;;;;;77.30;14.57;;;3.80;10.60;;;;;;5073712;28;20642;-72
2020/12/12 02:13:07;;;;;;;73.90;14.90;;;3.70;11.00;;;;;;5073761;28;20291;-72
2020/12/12 02:15:34;;;;;;;75.70;14.68;;;3.70;10.40;;;;;;5070069;28;20253;-72
2020/12/12 02:18:01;;;;;;;72.78;13.45;;;3.70;9.00;;;;;;5053018;28;20259;-72
2020/12/12 02:20:28;;;;;;;73.25;14.38;;;3.70;7.50;;;;;;5053706;28;20288;-72
2020/12/12 02:22:55;;;;;;;78.82;13.98;;;3.70;9.10;;;;;;5053050;28;20699;-72
2020/12/12 02:25:22;;;;;;;76.95;14.85;;;3.60;8.30;;;;;;5049394;28;20229;-72
2020/12/12 02:27:53;;;;;;;71.45;13.40;;;3.60;8.30;;;;;;5053079;28;20210;-72
2020/12/12 02:30:19;;;;;;;75.22;15.50;;;3.60;8.70;;;;;;5053327;28;20649;-72
2020/12/12 02:32:45;;;;;;;74.40;14.07;;;3.60;9.60;;;;;;5053020;28;20716;-72
2020/12/12 02:35:12;;;;;;;78.57;14.98;;;3.60;9.70;;;;;;5052531;28;20777;-72
2020/12/12 02:37:38;;;;;;;75.13;15.82;;;3.60;10.10;;;;;;5077368;22;20334;-69
2020/12/12 02:40:06;;;;;;;79.20;16.90;;;3.60;10.50;;;;;;5051354;28;20706;-69
2020/12/12 02:42:33;;;;;;;73.75;15.65;;;3.60;10.90;;;;;;5052272;28;20225;-69
2020/12/12 02:44:59;;;;;;;76.40;15.35;;;3.60;11.30;;;;;;5052686;28;20220;-69
2020/12/12 02:47:25;;;;;;;76.00;14.80;;;3.60;10.70;;;;;;5052688;28;20229;-69
2020/12/12 02:50:09;;;;;;;73.38;14.00;;;3.60;11.10;;;;;;5052738;28;20210;-69
2020/12/12 02:52:36;;;;;;;74.93;15.88;;;3.50;11.00;;;;;;5051879;28;20206;-69
2020/12/12 02:55:04;;;;;;;75.28;16.20;;;3.50;12.30;;;;;;5052529;28;20217;-69
2020/12/12 02:57:31;;;;;;;75.82;14.57;;;3.50;13.00;;;;;;5052829;28;20636;-69
2020/12/12 02:59:58;;;;;;;73.10;14.15;;;3.50;13.70;;;;;;5052566;28;20213;-69
2020/12/12 03:02:24;;;;;;;76.22;15.45;;;3.50;13.90;;;;;;5052421;28;20576;-69
2020/12/12 03:04:50;;;;;;;78.07;16.58;;;3.40;14.10;;;;;;5052504;28;20206;-69
2020/12/12 03:07:17;;;;;;;74.70;15.55;;;3.40;13.80;;;;;;5051605;28;20222;-69
2020/12/12 03:09:44;;;;;;;78.25;16.17;;;3.40;14.90;;;;;;5052682;28;20213;-69
2020/12/12 03:12:10;;;;;;;76.13;16.77;;;3.40;15.00;;;;;;5052373;28;20690;-69
2020/12/12 03:14:38;;;;;;;74.65;16.17;;;3.40;15.60;;;;;;5051931;28;20209;-69
2020/12/12 03:17:09;;;;;;;72.38;14.05;;;3.40;16.20;;;;;;5051907;28;20229;-69
2020/12/12 03:19:35;;;;;;;79.18;16.95;;;3.40;16.30;;;;;;5052136;28;20266;-69
2020/12/12 03:22:01;;;;;;;75.93;16.10;;;3.40;16.80;;;;;;5051795;28;20264;-69
2020/12/12 03:24:28;;;;;;;76.63;16.77;;;3.40;17.10;;;;;;5051932;28;20229;-69
2020/12/12 03:26:54;;;;;;;79.38;17.02;;;3.30;16.50;;;;;;5051687;28;20221;-69
2020/12/12 03:29:21;;;;;;;80.10;17.95;;;3.30;16.00;;;;;;5052187;28;20210;-69
2020/12/12 03:31:48;;;;;;;81.97;17.73;;;3.30;16.80;;;;;;5052074;28;20212;-69
2020/12/12 03:34:14;;;;;;;83.68;18.50;;;3.30;16.30;;;;;;5051621;28;20568;-69
2020/12/12 03:36:40;;;;;;;77.88;17.75;;;3.30;16.50;;;;;;5051075;28;20213;-69
2020/12/12 03:39:07;;;;;;;76.60;16.10;;;3.30;17.60;;;;;;5051956;28;20206;-69
2020/12/12 03:41:33;;;;;;;81.13;16.77;;;3.30;17.70;;;;;;5051720;28;20668;-69
2020/12/12 03:43:59;;;;;;;81.20;18.10;;;3.30;18.90;;;;;;5051599;28;20226;-69
2020/12/12 03:46:26;;;;;;;78.50;16.48;;;3.30;18.90;;;;;;5050587;28;20210;-69
2020/12/12 03:48:53;;;;;;;78.88;16.80;;;3.40;20.70;;;;;;5051602;28;20205;-69
2020/12/12 03:51:19;;;;;;;78.78;18.48;;;3.40;20.90;;;;;;5051347;28;20617;-69
2020/12/12 03:53:45;;;;;;;78.55;16.98;;;3.40;21.40;;;;;;5051370;28;20293;-69
2020/12/12 03:56:14;;;;;;;79.32;17.48;;;3.40;22.20;;;;;;5050879;28;20630;-69
2020/12/12 03:58:40;;;;;;;81.13;18.02;;;3.40;22.90;;;;;;5051443;28;20225;-69
2020/12/12 04:01:07;;;;;;;77.60;17.20;;;3.40;23.10;;;;;;5051132;28;20301;-69
2020/12/12 04:03:33;;;;;;;84.82;19.52;;;3.50;23.60;;;;;;5051134;28;20230;-69
2020/12/12 04:06:00;;;;;;;81.25;17.58;;;3.50;22.90;;;;;;5050793;28;20214;-69
2020/12/12 04:08:26;;;;;;;81.20;18.65;;;3.50;22.80;;;;;;5051081;28;20308;-69
2020/12/12 04:10:53;;;;;;;75.55;14.65;;;3.50;22.90;;;;;;5051118;28;20295;-69
2020/12/12 04:13:19;;;;;;;81.00;17.30;;;3.50;22.90;;;;;;5051204;28;20209;-69
2020/12/12 04:15:45;;;;;;;78.43;17.13;;;3.50;23.30;;;;;;5051468;28;20622;-69
2020/12/12 04:18:12;;;;;;;80.88;17.70;;;3.50;22.90;;;;;;5051016;28;20229;-69
2020/12/12 04:20:38;;;;;;;82.45;18.30;;;3.50;22.90;;;;;;5050973;28;20214;-69
2020/12/12 04:23:05;;;;;;;79.97;18.42;;;3.50;23.10;;;;;;5051005;28;20223;-69
2020/12/12 04:25:32;;;;;;;79.60;17.58;;;3.50;23.20;;;;;;5050975;28;20215;-69
2020/12/12 04:27:58;;;;;;;79.35;17.98;;;3.50;23.20;;;;;;5050625;28;20233;-69
2020/12/12 04:30:24;;;;;;;84.53;19.38;;;3.50;23.10;;;;;;5050824;28;20359;-69
2020/12/12 04:32:51;;;;;;;81.65;18.40;;;3.50;25.00;;;;;;5050664;28;20202;-69
2020/12/12 04:35:17;;;;;;;78.63;17.02;;;3.60;25.30;;;;;;5050749;28;20313;-69
2020/12/12 04:37:43;;;;;;;75.70;16.40;;;3.60;25.10;;;;;;5050381;28;20233;-69
2020/12/12 04:40:11;;;;;;;79.10;17.95;;;3.60;25.80;;;;;;5051375;28;20223;-69
2020/12/12 04:42:42;;;;;;;79.00;17.52;;;3.60;26.40;;;;;;5051016;28;20300;-69
2020/12/12 04:45:09;;;;;;;73.03;15.30;;;3.60;26.80;;;;;;5050589;28;20214;-69
2020/12/12 04:47:36;;;;;;;75.07;15.07;;;3.60;27.00;;;;;;5051264;28;20230;-69
2020/12/12 04:50:03;;;;;;;81.15;17.30;;;3.60;27.90;;;;;;5050969;28;20680;-69
2020/12/12 04:52:31;;;;;;;78.05;17.42;;;3.60;27.30;;;;;;5050769;28;20214;-69
2020/12/12 04:55:05;;;;;;;83.45;16.95;;;3.60;27.80;;;;;;5051078;28;20646;-69
2020/12/12 04:57:34;;;;;;;80.57;17.85;;;3.50;27.30;;;;;;5050706;28;20225;-69
2020/12/12 05:00:01;;;;;;;76.90;16.42;;;3.60;28.00;;;;;;5050924;28;20665;-69
2020/12/12 05:02:28;;;;;;;84.07;16.50;;;3.60;27.10;;;;;;5050938;28;20258;-69
2020/12/12 05:04:55;;;;;;;80.88;18.02;;;3.60;27.80;;;;;;5050825;28;20244;-69
2020/12/12 05:07:21;;;;;;;82.22;19.00;;;3.50;26.80;;;;;;5053175;28;20279;-69
2020/12/12 05:09:47;;;;;;;78.97;17.15;;;3.60;26.90;;;;;;5054347;28;20205;-69
2020/12/12 05:12:14;;;;;;;78.80;17.98;;;3.50;27.60;;;;;;5054201;28;20776;-69
2020/12/12 05:14:41;;;;;;;82.85;19.58;;;3.60;27.20;;;;;;5054356;28;20197;-69
2020/12/12 05:17:08;;;;;;;78.22;16.83;;;3.60;27.80;;;;;;5054297;28;20415;-69
2020/12/12 05:19:34;;;;;;;78.80;16.75;;;3.60;28.60;;;;;;5054313;28;20209;-69
2020/12/12 05:22:03;;;;;;;78.97;16.63;;;3.60;28.50;;;;;;5053731;28;20700;-69
2020/12/12 05:24:31;;;;;;;79.50;17.20;;;3.60;29.00;;;;;;5054090;28;20595;-69
2020/12/12 05:27:00;;;;;;;77.45;17.65;;;3.60;31.70;;;;;;5052815;28;20272;-69
2020/12/12 05:29:27;;;;;;;77.18;16.17;;;3.70;29.40;;;;;;5053580;28;20205;-69
2020/12/12 05:31:56;;;;;;;80.25;16.35;;;3.70;30.10;;;;;;5054188;28;20206;-69
2020/12/12 05:34:24;;;;;;;75.05;15.20;;;3.70;31.10;;;;;;5053926;28;20210;-69
2020/12/12 05:36:50;;;;;;;79.57;16.40;;;3.70;30.40;;;;;;5053230;28;20237;-69
2020/12/12 05:39:18;;;;;;;76.85;16.25;;;3.70;30.90;;;;;;5053789;28;20764;-69
2020/12/12 05:41:46;;;;;;;82.45;16.48;;;3.70;30.40;;;;;;5053927;28;20217;-69
2020/12/12 05:44:12;;;;;;;78.80;16.63;;;3.70;29.80;;;;;;5054072;28;20225;-69
2020/12/12 05:46:39;;;;;;;80.15;16.38;;;3.70;30.30;;;;;;5053272;28;20209;-69
2020/12/12 05:49:06;;;;;;;84.30;18.08;;;3.70;29.60;;;;;;5053942;28;20228;-69
2020/12/12 05:51:33;;;;;;;77.53;15.50;;;3.70;30.30;;;;;;5053404;28;20297;-69
2020/12/12 05:54:00;;;;;;;76.50;15.77;;;3.70;30.10;;;;;;5053706;28;20197;-69
2020/12/12 05:56:30;;;;;;;77.22;16.05;;;3.70;30.00;;;;;;5053399;28;20273;-69
2020/12/12 05:58:57;;;;;;;75.85;16.13;;;3.70;30.90;;;;;;5053994;28;20213;-69
2020/12/12 06:01:26;;;;;;;80.68;17.80;;;3.70;29.80;;;;;;5053968;28;20208;-69
2020/12/12 06:03:54;;;;;;;77.28;17.70;;;3.70;30.60;;;;;;5053709;28;20217;-69
2020/12/12 06:06:23;;;;;;;80.10;17.95;;;3.70;29.90;;;;;;5052824;28;20269;-69
2020/12/12 06:09:09;;;;;;;78.88;16.55;;;3.70;30.50;;;;;;5053935;28;20237;-69
2020/12/12 06:11:41;;;;;;;82.80;18.70;;;3.70;30.30;;;;;;5053578;28;20209;-69
2020/12/12 06:14:08;;;;;;;80.78;18.00;;;3.70;30.30;;;;;;5053307;28;20216;-69
2020/12/12 06:16:37;;;;;;;79.90;17.67;;;3.70;30.60;;;;;;5053266;28;20206;-69
2020/12/12 06:19:09;;;;;;;79.75;17.60;;;3.70;32.00;;;;;;5052278;28;20292;-69
2020/12/12 06:21:37;;;;;;;77.28;16.90;;;3.70;31.20;;;;;;5053428;28;20215;-69
2020/12/12 06:24:09;;;;;;;73.70;15.43;;;3.70;31.50;;;;;;5053043;28;20261;-69
2020/12/12 06:26:51;;;;;;;78.18;16.05;;;3.70;32.00;;;;;;5052928;28;20205;-69
2020/12/12 06:29:19;;;;;;;75.85;15.98;;;3.80;32.20;;;;;;5052805;28;20690;-69
2020/12/12 06:31:46;;;;;;;77.22;16.30;;;3.80;32.20;;;;;;5053410;28;20240;-69
2020/12/12 06:34:13;;;;;;;77.18;16.80;;;3.80;32.30;;;;;;5053091;28;20208;-69
2020/12/12 06:36:46;;;;;;;78.38;18.08;;;3.80;32.50;;;;;;5052344;28;20221;-69
2020/12/12 06:39:17;;;;;;;74.47;16.52;;;3.80;33.20;;;;;;5052937;28;20208;-69
2020/12/12 06:41:44;;;;;;;77.05;15.88;;;3.90;32.70;;;;;;5052751;28;20206;-69
2020/12/12 06:44:10;;;;;;;76.65;17.08;;;3.90;32.60;;;;;;5052658;28;20229;-69
2020/12/12 06:46:51;;;;;;;77.50;16.67;;;3.90;33.50;;;;;;5052916;28;20217;-69
2020/12/12 06:49:17;;;;;;;77.57;16.67;;;3.90;34.10;;;;;;5053130;28;20201;-69
2020/12/12 06:51:45;;;;;;;80.72;17.02;;;3.90;32.70;;;;;;5052318;28;20208;-69
2020/12/12 06:54:11;;;;;;;76.90;17.05;;;3.90;32.70;;;;;;5051825;28;20255;-69
2020/12/12 06:56:37;;;;;;;77.25;16.92;;;3.90;33.90;;;;;;5051696;28;20214;-69
2020/12/12 06:59:29;;;;;;;74.43;15.50;;;3.90;32.60;;;;;;5052474;28;20206;-69
2020/12/12 07:02:33;;;;;;;71.93;14.38;;;3.90;32.70;;;;;;5052271;28;20201;-69
2020/12/12 07:05:17;;;;;;;76.78;15.57;;;3.90;34.40;;;;;;5049044;28;20225;-69
2020/12/12 07:07:44;;;;;;;76.25;16.30;;;3.90;34.40;;;;;;5052126;28;20253;-69
2020/12/12 07:10:11;;;;;;;75.60;15.70;;;3.90;36.50;;;;;;5052613;28;20216;-69
2020/12/12 07:12:38;;;;;;;78.97;16.52;;;4.00;37.20;;;;;;5052309;28;20213;-69
2020/12/12 07:15:05;;;;;;;74.72;15.02;;;3.90;37.10;;;;;;5052164;28;20206;-69
2020/12/12 07:17:33;;;;;;;75.55;15.02;;;4.00;38.60;;;;;;5052287;28;20316;-69
2020/12/12 07:20:00;;;;;;;73.63;14.32;;;4.00;40.00;;;;;;5052072;28;20212;-69
2020/12/12 07:22:28;;;;;;;78.90;15.10;;;4.00;40.00;;;;;;5052349;28;20206;-69
2020/12/12 07:24:56;;;;;;;72.03;14.70;;;4.00;41.50;;;;;;5052069;28;20604;-69
2020/12/12 07:27:22;;;;;;;76.00;15.60;;;4.00;42.30;;;;;;5051902;28;20299;-69
2020/12/12 07:29:49;;;;;;;79.60;17.30;;;4.00;43.20;;;;;;5052286;28;20208;-69
2020/12/12 07:32:15;;;;;;;72.13;15.43;;;4.00;44.30;;;;;;5052269;28;20576;-69
2020/12/12 07:34:42;;;;;;;76.13;15.65;;;4.00;45.40;;;;;;5051841;28;20206;-69
2020/12/12 07:37:10;;;;;;;76.20;14.95;;;4.00;47.30;;;;;;5051607;28;20262;-69
2020/12/12 07:39:37;;;;;;;75.18;14.93;;;4.00;47.40;;;;;;5051941;28;20237;-69
2020/12/12 07:42:05;;;;;;;70.57;14.15;;;4.00;49.20;;;;;;5052244;28;20205;-69
2020/12/12 07:44:33;;;;;;;76.05;16.63;;;4.10;50.80;;;;;;5051493;28;20730;-69
2020/12/12 07:47:02;;;;;;;80.13;16.58;;;4.10;53.10;;;;;;5051769;28;20598;-69
2020/12/12 07:49:30;;;;;;;76.22;15.45;;;4.10;53.60;;;;;;5051862;28;20212;-69
2020/12/12 07:52:00;;;;;;;77.03;15.13;;;4.10;54.00;;;;;;5051802;28;20232;-69
2020/12/12 07:54:33;;;;;;;74.65;15.18;;;4.20;56.30;;;;;;5051594;28;20208;-69
2020/12/12 07:56:59;;;;;;;73.70;14.48;;;4.20;58.00;;;;;;5051138;28;20226;-69
2020/12/12 07:59:27;;;;;;;73.45;13.70;;;4.30;59.50;;;;;;5051866;28;20741;-69
2020/12/12 08:01:59;;;;;;;74.88;14.30;;;4.30;60.80;;;;;;5051773;28;20206;-69
2020/12/12 08:04:26;;;;;;;75.28;14.20;;;4.40;61.50;;;;;;5051483;28;20705;-69
2020/12/12 08:06:52;;;;;;;76.90;13.90;;;4.40;61.90;;;;;;5051230;28;20236;-69
2020/12/12 08:09:19;;;;;;;77.50;15.23;;;4.40;62.60;;;;;;5051174;28;20595;-69
2020/12/12 08:11:45;;;;;;;72.07;14.02;;;4.50;63.10;;;;;;5051319;28;20208;-69
2020/12/12 08:14:12;;;;;;;72.80;12.82;;;4.50;63.40;;;;;;5051306;28;20208;-69
2020/12/12 08:16:44;;;;;;;74.32;14.00;;;4.60;63.80;;;;;;5051312;28;20241;-69
2020/12/12 08:19:10;;;;;;;70.53;13.35;;;4.60;63.70;;;;;;5051421;28;20209;-69
2020/12/12 08:21:37;;;;;;;78.70;17.25;;;4.70;64.40;;;;;;5051233;28;20305;-69
2020/12/12 08:24:07;;;;;;;76.65;16.75;;;4.70;63.80;;;;;;5050876;28;20222;-69
2020/12/12 08:26:35;;;;;;;76.65;14.95;;;4.80;63.50;;;;;;5051187;28;20206;-69
2020/12/12 08:29:03;;;;;;;74.00;14.30;;;4.80;63.60;;;;;;5051401;28;20292;-68
2020/12/12 08:31:37;;;;;;;70.97;13.98;;;5.00;64.00;;;;;;5051105;28;20724;-68
2020/12/12 08:34:07;;;;;;;77.38;13.63;;;5.00;63.80;;;;;;5051181;28;20205;-69
2020/12/12 08:36:35;;;;;;;74.03;14.25;;;5.10;63.60;;;;;;5050530;28;20205;-69
2020/12/12 08:39:05;;;;;;;70.07;13.68;;;5.20;63.00;;;;;;5051522;28;20218;-69
2020/12/12 08:41:33;;;;;;;69.43;13.60;;;5.30;63.10;;;;;;5053105;28;20264;-69
2020/12/12 08:44:00;;;;;;;70.20;12.07;;;5.30;62.90;;;;;;5054971;28;20267;-69
2020/12/12 08:46:27;;;;;;;64.75;9.23;;;5.40;62.90;;;;;;5055332;28;20270;-69
2020/12/12 08:48:54;;;;;;;63.80;8.95;;;5.30;61.20;;;;;;5055002;28;20297;-69
2020/12/12 08:51:26;;;;;;;64.90;10.10;;;5.40;52.90;;;;;;5055176;28;20672;-70
2020/12/12 08:53:53;;;;;;;68.30;9.30;;;5.40;49.50;;;;;;5055041;28;20293;-70
2020/12/12 08:56:27;;;;;;;64.15;9.50;;;5.40;48.50;;;;;;5054781;28;20209;-70
2020/12/12 08:58:57;;;;;;;65.85;8.75;;;5.40;47.30;;;;;;5055005;28;20205;-69
2020/12/12 09:01:35;;;;;;;67.22;9.82;;;5.40;48.90;;;;;;5054854;28;20210;-69
2020/12/12 09:04:20;;;;;;;62.50;9.18;;;5.50;48.90;;;;;;5054689;28;20680;-69
2020/12/12 09:06:53;;;;;;;67.25;8.70;;;5.60;50.00;;;;;;5054584;28;20233;-70
2020/12/12 09:09:21;;;;;;;71.65;12.73;;;5.60;50.30;;;;;;5054722;28;20210;-70
2020/12/12 09:11:54;;;;;;;67.85;10.63;;;5.70;49.20;;;;;;5054562;28;20302;-70
2020/12/12 09:14:20;;;;;;;62.15;7.57;;;5.70;47.30;;;;;;5054951;28;20216;-70
2020/12/12 09:16:48;;;;;;;65.15;8.93;;;5.80;43.50;;;;;;5054241;28;20230;-69
2020/12/12 09:19:15;;;;;;;62.50;8.35;;;5.80;37.10;;;;;;5054393;28;20211;-69
2020/12/12 09:21:41;;;;;;;68.95;11.55;;;5.90;34.60;;;;;;5054567;28;20565;-69
2020/12/12 09:24:09;;;;;;;73.45;12.63;;;5.90;29.20;;;;;;5054056;28;20705;-69
2020/12/12 09:26:35;;;;;;;75.85;14.40;;;6.00;27.70;;;;;;5053928;28;20685;-69
2020/12/12 09:29:01;;;;;;;65.60;8.90;;;6.00;26.00;;;;;;5054732;28;20225;-70
2020/12/12 09:31:28;;;;;;;71.70;11.10;;;6.10;21.50;;;;;;5054437;28;20218;-70
2020/12/12 09:33:55;;;;;;;81.30;14.65;;;6.10;17.00;;;;;;5054137;28;20683;-69
2020/12/12 09:36:21;;;;;;;110.97;24.95;;;6.10;14.20;;;;;;5053830;28;20209;-70
2020/12/12 09:38:47;;;;;;;107.22;24.90;;;6.10;12.80;;;;;;5054027;28;20329;-69
2020/12/12 09:41:15;;;;;;;95.03;19.33;;;6.10;11.10;;;;;;5053851;28;20206;-70
2020/12/12 09:43:41;;;;;;;81.07;14.23;;;6.20;12.90;;;;;;5053925;28;20275;-70
2020/12/12 09:46:08;;;;;;;68.00;10.10;;;6.20;11.60;;;;;;5053952;28;20241;-70
2020/12/12 09:48:36;;;;;;;64.00;8.30;;;6.20;11.40;;;;;;5053879;28;20230;-70
2020/12/12 09:51:02;;;;;;;63.30;8.95;;;6.30;12.30;;;;;;5053941;28;20203;-70
2020/12/12 09:53:29;;;;;;;65.80;7.90;;;6.30;8.70;;;;;;5052978;28;20256;-70
2020/12/12 09:55:56;;;;;;;65.70;8.77;;;6.30;7.50;;;;;;5053754;28;20448;-70
2020/12/12 09:58:24;;;;;;;64.63;9.50;;;6.40;3.30;;;;;;5053732;28;20739;-70
2020/12/12 10:00:50;;;;;;;66.28;10.77;;;6.40;1.00;;;;;;5053915;28;20294;-70
2020/12/12 10:03:18;;;;;;;69.78;11.68;;;6.50;1.00;;;;;;5053757;28;20646;-70
2020/12/12 10:05:44;;;;;;;63.40;8.43;;;6.50;3.40;;;;;;5053578;28;20210;-69
2020/12/12 10:08:11;;;;;;;67.40;9.60;;;6.60;3.90;;;;;;5053507;28;20230;-70
2020/12/12 10:10:37;;;;;;;61.33;7.70;;;6.60;1.00;;;;;;5054295;28;20293;-70
2020/12/12 10:13:03;;;;;;;59.55;6.40;;;6.60;1.00;;;;;;5053394;28;20210;-70
2020/12/12 10:15:31;;;;;;;60.78;5.82;;;6.60;1.00;;;;;;5053414;28;20678;-70
2020/12/12 10:17:57;;;;;;;59.63;6.50;;;6.60;1.00;;;;;;5053112;28;20226;-70
2020/12/12 10:20:24;;;;;;;61.17;6.28;;;6.60;1.00;;;;;;5053392;28;20208;-70
2020/12/12 10:22:51;;;;;;;60.58;6.57;;;6.60;1.00;;;;;;5053231;28;20296;-70
2020/12/12 10:25:18;;;;;;;60.20;6.47;;;6.70;1.00;;;;;;5053415;28;20228;-70
2020/12/12 10:27:44;;;;;;;60.25;5.72;;;6.70;1.00;;;;;;5052923;28;20737;-70
2020/12/12 10:30:12;;;;;;;61.03;5.97;;;6.70;1.00;;;;;;5053296;28;20306;-69
2020/12/12 10:32:40;;;;;;;63.40;9.57;;;6.70;1.00;;;;;;5053263;28;20524;-70
2020/12/12 10:35:09;;;;;;;63.17;7.95;;;6.80;1.00;;;;;;5052867;28;20526;-69
2020/12/12 10:37:35;;;;;;;65.33;9.13;;;6.80;1.00;;;;;;5052722;28;20707;-70
2020/12/12 10:40:09;;;;;;;63.72;7.88;;;6.80;1.00;;;;;;5053126;28;20449;-70
2020/12/12 10:42:36;;;;;;;66.40;9.90;;;6.80;1.00;;;;;;5053125;28;20615;-70
2020/12/12 10:45:03;;;;;;;66.68;9.63;;;6.80;1.00;;;;;;5052800;28;20231;-70
2020/12/12 10:47:29;;;;;;;75.57;15.03;;;6.80;1.00;;;;;;5052566;28;20314;-70
2020/12/12 10:49:56;;;;;;;61.90;7.50;;;6.80;1.00;;;;;;5052690;28;20536;-70
2020/12/12 10:52:22;;;;;;;63.03;8.45;;;6.70;1.00;;;;;;5053193;28;20441;-70
2020/12/12 10:54:50;;;;;;;63.33;8.95;;;6.80;1.00;;;;;;5052609;28;20215;-70
2020/12/12 10:57:16;;;;;;;79.97;14.13;;;6.80;1.00;;;;;;5052504;28;20802;-70
2020/12/12 10:59:43;;;;;;;97.47;23.17;;;6.90;1.00;;;;;;5052689;28;20207;-70
2020/12/12 11:02:11;;;;;;;90.53;19.70;;;7.00;1.00;;;;;;5052432;28;20450;-70
2020/12/12 11:04:37;;;;;;;71.40;11.43;;;7.10;1.00;;;;;;5051912;28;21034;-70
2020/12/12 11:07:05;;;;;;;63.40;8.20;;;7.20;1.00;;;;;;5052378;28;20553;-69
2020/12/12 11:09:32;;;;;;;62.20;8.23;;;7.30;1.00;;;;;;5052398;28;20989;-70
2020/12/12 11:11:58;;;;;;;59.80;6.30;;;7.40;1.00;;;;;;5052448;28;20541;-70
2020/12/12 11:14:27;;;;;;;58.57;5.87;;;7.50;1.00;;;;;;5052304;28;20545;-70
2020/12/12 11:16:54;;;;;;;70.80;12.77;;;7.60;1.00;;;;;;5051988;28;20466;-71
2020/12/12 11:19:20;;;;;;;67.53;10.97;;;7.70;1.00;;;;;;5052027;28;20451;-70
2020/12/12 11:21:46;;;;;;;61.90;7.07;;;7.80;1.00;;;;;;5052322;28;20448;-70
2020/12/12 11:24:14;;;;;;;61.70;6.03;;;7.90;1.00;;;;;;5052094;28;20489;-70
2020/12/12 11:26:40;;;;;;;59.17;5.60;;;8.00;1.00;;;;;;5052010;28;20448;-71
2020/12/12 11:29:06;;;;;;;59.27;6.23;;;8.00;1.00;;;;;;5052078;28;20529;-71
2020/12/12 11:31:33;;;;;;;60.17;5.80;;;8.00;1.00;;;;;;5051991;28;20534;-71
2020/12/12 11:34:04;;;;;;;59.17;5.87;;;7.90;1.00;;;;;;5051883;28;20545;-71
2020/12/12 11:39:14;;;;;;;58.90;5.17;;;7.80;1.00;;;;;;5038857;28;20531;-70
2020/12/12 11:47:06;;;;;;;58.30;4.83;;;7.60;1.00;;;;;;5051676;28;20589;-71
2020/12/12 11:49:33;;;;;;;58.33;5.03;;;7.60;1.00;;;;;;5051901;28;20472;-71
2020/12/12 11:51:59;;;;;;;60.10;5.57;;;7.60;1.00;;;;;;5051477;28;20505;-71
2020/12/12 11:54:25;;;;;;;58.87;5.20;;;7.70;1.00;;;;;;5051392;28;20522;-70
2020/12/12 11:56:52;;;;;;;61.37;5.70;;;7.60;1.00;;;;;;5051455;28;20473;-70
2020/12/12 11:59:19;;;;;;;58.37;5.10;;;7.70;1.00;;;;;;5051861;28;20447;-71
2020/12/12 12:01:45;;;;;;;59.77;6.13;;;7.60;1.00;;;;;;5051494;28;20926;-71
2020/12/12 12:04:11;;;;;;;62.43;8.70;;;7.70;1.00;;;;;;5051147;28;20482;-70
2020/12/12 12:06:38;;;;;;;59.97;5.93;;;7.70;1.00;;;;;;5051232;28;20480;-70
2020/12/12 12:09:17;;;;;;;61.97;5.60;;;7.60;1.00;;;;;;5051219;28;20534;-71
2020/12/12 12:11:44;;;;;;;60.33;5.33;;;7.60;1.00;;;;;;5051492;28;20950;-70
2020/12/12 12:14:11;;;;;;;58.83;4.97;;;7.60;1.00;;;;;;5051301;28;20495;-70
2020/12/12 12:16:39;;;;;;;60.53;5.50;;;7.60;1.00;;;;;;5050563;28;20447;-70
2020/12/12 12:19:07;;;;;;;59.30;5.40;;;7.60;1.00;;;;;;5051162;28;20446;-70
2020/12/12 12:21:35;;;;;;;59.00;5.87;;;7.60;1.00;;;;;;5051226;28;20481;-70
2020/12/12 12:24:03;;;;;;;60.13;5.87;;;7.60;1.00;;;;;;5050937;28;21070;-71
2020/12/12 12:26:29;;;;;;;60.40;6.00;;;7.60;1.00;;;;;;5050963;28;20485;-70
2020/12/12 12:28:55;;;;;;;60.90;6.07;;;7.60;1.00;;;;;;5051340;28;20536;-70
2020/12/12 12:31:23;;;;;;;58.90;5.23;;;7.60;1.00;;;;;;5051286;28;20525;-70
2020/12/12 12:33:49;;;;;;;58.77;5.10;;;7.60;1.00;;;;;;5051209;28;20461;-70
2020/12/12 12:36:16;;;;;;;58.60;5.60;;;7.60;1.00;;;;;;5050702;28;20450;-70
2020/12/12 12:38:43;;;;;;;58.90;5.27;;;7.70;1.00;;;;;;5051217;28;20569;-70
2020/12/12 12:41:09;;;;;;;60.77;7.00;;;7.60;1.00;;;;;;5050915;28;20470;-70
2020/12/12 12:43:35;;;;;;;61.77;7.47;;;7.60;1.00;;;;;;5051108;28;20882;-70
2020/12/12 12:46:02;;;;;;;62.00;6.27;;;7.60;1.00;;;;;;5050754;28;20449;-71
2020/12/12 12:48:29;;;;;;;60.07;6.70;;;7.60;1.00;;;;;;5050868;28;20500;-70
2020/12/12 12:50:55;;;;;;;60.03;6.57;;;7.60;1.00;;;;;;5050827;28;20454;-70
2020/12/12 12:53:22;;;;;;;60.10;6.40;;;7.60;1.00;;;;;;5050966;28;20475;-70